createdAt,value
2022-10-31T00:02:28.862Z,5.27
2022-10-31T00:05:38.933Z,6.00
2022-10-31T00:08:49.146Z,8.67
2022-10-31T00:11:57.390Z,7.90
2022-10-31T00:15:03.097Z,5.93
2022-10-31T00:18:09.689Z,7.67
2022-10-31T00:21:13.960Z,6.50
2022-10-31T00:24:18.345Z,7.83
2022-10-31T00:27:22.622Z,4.80
2022-10-31T00:30:28.359Z,9.50
2022-10-31T00:33:32.935Z,11.27
2022-10-31T00:36:36.965Z,4.93
2022-10-31T00:39:41.285Z,6.97
2022-10-31T00:42:45.519Z,7.40
2022-10-31T00:45:51.191Z,8.47
2022-10-31T00:48:55.204Z,8.13
2022-10-31T00:51:59.309Z,8.40
2022-10-31T00:55:03.551Z,6.07
2022-10-31T00:58:08.104Z,5.30
2022-10-31T01:01:13.857Z,7.30
2022-10-31T01:04:18.618Z,6.03
2022-10-31T01:07:22.835Z,6.33
2022-10-31T01:10:26.965Z,9.60
2022-10-31T01:13:31.387Z,7.00
2022-10-31T01:16:36.915Z,4.93
2022-10-31T01:19:41.381Z,8.40
2022-10-31T01:22:45.388Z,6.37
2022-10-31T01:25:49.449Z,13.47
2022-10-31T01:28:55.784Z,6.70
2022-10-31T01:32:01.440Z,5.00
2022-10-31T01:35:05.874Z,4.47
2022-10-31T01:38:10.304Z,10.77
2022-10-31T01:41:16.308Z,5.53
2022-10-31T01:44:54.247Z,4.53
2022-10-31T01:48:00.196Z,8.50
2022-10-31T01:51:06.240Z,6.23
2022-10-31T01:54:14.229Z,6.23
2022-10-31T01:57:20.696Z,5.13
2022-10-31T02:00:25.345Z,5.53
2022-10-31T02:03:32.170Z,9.27
2022-10-31T02:06:40.418Z,7.63
2022-10-31T02:09:45.834Z,6.33
2022-10-31T02:12:50.385Z,9.87
2022-10-31T02:15:57.838Z,13.33
2022-10-31T02:19:03.979Z,5.53
2022-10-31T02:22:16.098Z,11.53
2022-10-31T02:25:39.969Z,6.87
2022-10-31T02:29:03.998Z,6.97
2022-10-31T02:32:16.810Z,5.73
2022-10-31T02:35:33.436Z,8.77
2022-10-31T02:38:47.141Z,5.53
2022-10-31T02:42:06.789Z,7.17
2022-10-31T02:45:16.393Z,8.27
2022-10-31T02:48:29.281Z,12.80
2022-10-31T02:51:33.865Z,8.53
2022-10-31T02:54:38.166Z,6.60
2022-10-31T02:57:44.910Z,6.17
2022-10-31T03:01:01.571Z,8.70
2022-10-31T03:04:28.617Z,4.37
2022-10-31T03:07:41.869Z,6.47
2022-10-31T03:10:50.476Z,11.00
2022-10-31T03:14:03.657Z,5.20
2022-10-31T03:17:15.696Z,4.67
2022-10-31T03:20:24.887Z,3.87
2022-10-31T03:23:31.137Z,4.00
2022-10-31T03:26:38.479Z,8.93
2022-10-31T03:29:45.103Z,5.07
2022-10-31T03:32:52.858Z,9.03
2022-10-31T03:36:05.479Z,5.47
2022-10-31T03:39:13.616Z,6.03
2022-10-31T03:42:21.266Z,6.90
2022-10-31T03:45:28.830Z,5.03
2022-10-31T03:48:34.258Z,8.03
2022-10-31T03:51:46.392Z,6.00
2022-10-31T03:54:57.486Z,12.17
2022-10-31T03:58:05.541Z,5.00
2022-10-31T04:01:14.267Z,6.97
2022-10-31T04:04:19.375Z,7.17
2022-10-31T04:07:29.867Z,9.70
2022-10-31T04:10:35.722Z,11.33
2022-10-31T04:13:42.146Z,6.60
2022-10-31T04:16:50.968Z,5.97
2022-10-31T04:20:02.593Z,5.80
2022-10-31T04:23:21.177Z,7.73
2022-10-31T04:26:26.329Z,7.70
2022-10-31T04:29:30.599Z,5.90
2022-10-31T04:32:35.416Z,8.03
2022-10-31T04:35:39.622Z,10.27
2022-10-31T04:38:45.477Z,10.13
2022-10-31T04:42:15.585Z,4.60
2022-10-31T04:45:21.287Z,5.23
2022-10-31T04:48:29.102Z,6.77
2022-10-31T04:51:33.534Z,12.00
2022-10-31T04:54:39.545Z,7.07
2022-10-31T04:58:13.093Z,9.80
2022-10-31T05:01:17.640Z,9.67
2022-10-31T05:04:22.680Z,9.70
2022-10-31T05:07:27.247Z,9.83
2022-10-31T05:10:36.950Z,9.40
2022-10-31T05:13:41.792Z,11.40
2022-10-31T05:16:57.296Z,8.73
2022-10-31T05:20:27.162Z,15.37
2022-10-31T05:23:47.462Z,6.53
2022-10-31T05:26:56.106Z,5.63
2022-10-31T05:33:09.892Z,9.17
2022-10-31T05:36:35.148Z,11.03
2022-10-31T05:39:49.794Z,4.53
2022-10-31T05:43:00.133Z,10.03
2022-10-31T05:46:04.705Z,9.33
2022-10-31T05:49:27.351Z,5.33
2022-10-31T05:53:11.412Z,8.37
2022-10-31T05:56:17.377Z,8.67
2022-10-31T05:59:23.176Z,7.27
2022-10-31T06:02:28.166Z,8.40
2022-10-31T06:06:00.457Z,8.27
2022-10-31T06:09:14.809Z,11.47
2022-10-31T06:12:22.199Z,11.23
2022-10-31T06:15:48.197Z,11.33
2022-10-31T06:19:04.336Z,8.73
2022-10-31T06:22:12.780Z,14.40
2022-10-31T06:25:17.164Z,9.73
2022-10-31T06:28:26.550Z,7.27
2022-10-31T06:31:41.606Z,10.63
2022-10-31T06:34:49.523Z,12.60
2022-10-31T06:37:54.901Z,6.53
2022-10-31T06:41:16.191Z,16.43
2022-10-31T06:44:26.535Z,13.13
2022-10-31T06:47:56.704Z,7.03
2022-10-31T06:51:06.620Z,14.60
2022-10-31T06:54:10.927Z,7.17
2022-10-31T06:57:24.199Z,12.17
2022-10-31T07:00:30.096Z,8.43
2022-10-31T07:03:43.156Z,5.43
2022-10-31T07:06:51.749Z,8.75
2022-10-31T07:09:59.313Z,10.27
2022-10-31T07:13:19.770Z,10.95
2022-10-31T07:16:30.648Z,12.27
2022-10-31T07:19:36.539Z,13.10
2022-10-31T07:22:41.046Z,11.25
2022-10-31T07:25:48.191Z,8.93
2022-10-31T07:28:56.952Z,10.82
2022-10-31T07:32:03.146Z,11.45
2022-10-31T07:35:11.066Z,11.43
2022-10-31T07:38:24.813Z,11.50
2022-10-31T07:41:31.372Z,8.60
2022-10-31T07:44:41.462Z,10.02
2022-10-31T07:48:10.823Z,6.95
2022-10-31T07:51:34.632Z,13.48
2022-10-31T07:54:59.215Z,8.40
2022-10-31T07:58:07.689Z,12.30
2022-10-31T08:01:16.107Z,9.05
2022-10-31T08:04:31.737Z,10.30
2022-10-31T08:07:56.264Z,13.27
2022-10-31T08:11:03.027Z,6.82
2022-10-31T08:14:08.992Z,12.85
2022-10-31T08:17:28.862Z,11.73
2022-10-31T08:20:43.380Z,8.00
2022-10-31T08:23:49.392Z,8.77
2022-10-31T08:26:56.558Z,11.27
2022-10-31T08:30:02.034Z,9.10
2022-10-31T08:33:10.774Z,9.00
2022-10-31T08:36:35.945Z,7.25
2022-10-31T08:39:52.302Z,9.82
2022-10-31T08:43:00.456Z,6.07
2022-10-31T08:46:08.409Z,5.85
2022-10-31T08:49:13.764Z,9.55
2022-10-31T08:52:23.441Z,8.02
2022-10-31T08:55:41.243Z,10.30
2022-10-31T08:59:04.200Z,8.82
2022-10-31T09:02:30.367Z,14.73
2022-10-31T09:05:37.823Z,7.35
2022-10-31T09:08:49.504Z,9.02
2022-10-31T09:11:56.399Z,8.23
2022-10-31T09:15:21.840Z,11.15
2022-10-31T09:18:49.023Z,6.53
2022-10-31T09:21:56.470Z,7.25
2022-10-31T09:25:00.853Z,9.55
2022-10-31T09:28:08.417Z,7.68
2022-10-31T09:31:13.019Z,12.80
2022-10-31T09:34:26.269Z,10.20
2022-10-31T09:38:00.531Z,5.50
2022-10-31T09:41:19.153Z,10.60
2022-10-31T09:44:33.559Z,8.88
2022-10-31T09:47:51.291Z,7.07
2022-10-31T09:51:31.568Z,7.68
2022-10-31T09:54:51.777Z,7.43
2022-10-31T09:57:57.129Z,11.43
2022-10-31T10:01:05.789Z,9.82
2022-10-31T10:04:25.866Z,6.45
2022-10-31T10:07:44.999Z,5.75
2022-10-31T10:11:27.322Z,5.13
2022-10-31T10:15:03.078Z,6.47
2022-10-31T10:18:18.157Z,5.25
2022-10-31T10:21:32.549Z,4.97
2022-10-31T10:24:56.416Z,7.72
2022-10-31T10:28:11.119Z,7.00
2022-10-31T10:31:18.253Z,9.65
2022-10-31T10:34:28.883Z,8.18
2022-10-31T10:37:38.768Z,9.85
2022-10-31T10:40:43.728Z,8.13
2022-10-31T10:43:48.154Z,5.50
2022-10-31T10:47:17.521Z,5.97
2022-10-31T10:50:26.888Z,6.38
2022-10-31T10:54:03.233Z,4.18
2022-10-31T10:57:26.780Z,7.63
2022-10-31T11:00:34.347Z,5.93
2022-10-31T11:03:39.065Z,4.80
2022-10-31T11:06:44.742Z,5.80
2022-10-31T11:09:49.472Z,5.20
2022-10-31T11:13:20.639Z,6.60
2022-10-31T11:16:36.768Z,3.60
2022-10-31T11:19:43.939Z,7.18
2022-10-31T11:22:51.741Z,4.75
2022-10-31T11:25:59.038Z,5.78
2022-10-31T11:29:04.501Z,3.63
2022-10-31T11:32:19.612Z,4.97
2022-10-31T11:35:26.760Z,4.35
2022-10-31T11:38:37.841Z,8.65
2022-10-31T11:41:43.588Z,5.65
2022-10-31T11:44:47.783Z,5.75
2022-10-31T11:47:58.207Z,5.05
2022-10-31T11:51:04.102Z,8.52
2022-10-31T11:54:23.925Z,7.10
2022-10-31T11:57:31.501Z,13.00
2022-10-31T12:00:42.171Z,7.68
2022-10-31T12:03:57.602Z,4.63
2022-10-31T12:07:02.141Z,7.07
2022-10-31T12:10:13.872Z,4.97
2022-10-31T12:13:34.093Z,6.40
2022-10-31T12:16:45.151Z,9.02
2022-10-31T12:20:00.731Z,6.30
2022-10-31T12:23:10.969Z,9.07
2022-10-31T12:26:24.115Z,5.38
2022-10-31T12:29:44.320Z,7.28
2022-10-31T12:33:15.909Z,6.03
2022-10-31T12:36:35.632Z,5.10
2022-10-31T12:39:49.399Z,6.13
2022-10-31T12:43:08.003Z,9.15
2022-10-31T12:46:21.438Z,5.82
2022-10-31T12:49:49.043Z,5.65
2022-10-31T12:53:06.508Z,7.43
2022-10-31T12:56:25.143Z,4.43
2022-10-31T12:59:36.713Z,5.38
2022-10-31T13:02:45.527Z,6.25
2022-10-31T13:05:54.485Z,7.85
2022-10-31T13:09:02.996Z,5.78
2022-10-31T13:12:12.612Z,6.60
2022-10-31T13:15:21.719Z,6.65
2022-10-31T13:18:30.659Z,6.50
2022-10-31T13:21:40.346Z,4.07
2022-10-31T13:24:55.439Z,9.38
2022-10-31T13:28:04.453Z,3.17
2022-10-31T13:31:10.883Z,5.50
2022-10-31T13:34:26.202Z,4.78
2022-10-31T13:37:37.049Z,5.35
2022-10-31T13:40:48.591Z,6.22
2022-10-31T13:44:02.692Z,8.13
2022-10-31T13:47:28.872Z,6.30
2022-10-31T13:50:34.448Z,7.53
2022-10-31T13:53:41.129Z,9.02
2022-10-31T13:56:51.074Z,3.47
2022-10-31T13:59:57.803Z,4.80
2022-10-31T14:03:03.931Z,6.07
2022-10-31T14:06:11.042Z,5.97
2022-10-31T14:09:33.808Z,7.00
2022-10-31T14:12:42.456Z,6.85
2022-10-31T14:15:57.260Z,6.90
2022-10-31T14:19:07.353Z,9.18
2022-10-31T14:22:22.729Z,7.43
2022-10-31T14:25:37.993Z,5.10
2022-10-31T14:28:42.093Z,12.48
2022-10-31T14:31:48.333Z,10.25
2022-10-31T14:34:59.901Z,7.32
2022-10-31T14:38:29.072Z,8.73
2022-10-31T14:41:48.481Z,7.28
2022-10-31T14:45:16.021Z,7.97
2022-10-31T14:48:52.541Z,6.93
2022-10-31T14:52:00.393Z,6.45
2022-10-31T14:55:09.791Z,7.53
2022-10-31T14:58:21.879Z,12.05
2022-10-31T15:01:30.303Z,8.27
2022-10-31T15:04:35.043Z,10.60
2022-10-31T15:07:53.378Z,10.70
2022-10-31T15:10:57.623Z,21.60
2022-10-31T15:14:02.294Z,18.23
2022-10-31T15:17:06.691Z,26.33
2022-10-31T15:20:14.050Z,13.65
2022-10-31T15:23:24.254Z,18.63
2022-10-31T15:26:35.092Z,17.92
2022-10-31T15:29:39.591Z,17.42
2022-10-31T15:32:57.391Z,18.45
2022-10-31T15:36:04.303Z,15.18
2022-10-31T15:39:13.779Z,11.48
2022-10-31T15:42:23.253Z,13.45
2022-10-31T15:45:29.420Z,19.40
2022-10-31T15:48:35.908Z,19.10
2022-10-31T15:51:40.609Z,17.33
2022-10-31T15:54:49.952Z,18.17
2022-10-31T15:57:56.029Z,26.80
2022-10-31T16:01:02.179Z,11.05
2022-10-31T16:04:21.539Z,15.95
2022-10-31T16:07:26.739Z,16.15
2022-10-31T16:10:36.502Z,18.63
2022-10-31T16:13:44.692Z,15.63
2022-10-31T16:16:53.572Z,10.82
2022-10-31T16:20:01.002Z,18.05
2022-10-31T16:23:05.522Z,20.52
2022-10-31T16:26:11.801Z,18.15
2022-10-31T16:29:28.929Z,25.88
2022-10-31T16:32:38.330Z,17.70
2022-10-31T16:35:42.413Z,14.68
2022-10-31T16:38:47.363Z,15.43
2022-10-31T16:41:54.807Z,14.02
2022-10-31T16:44:59.040Z,15.80
2022-10-31T16:48:07.673Z,14.00
2022-10-31T16:51:12.076Z,19.38
2022-10-31T16:54:16.191Z,18.08
2022-10-31T16:57:28.949Z,15.23
2022-10-31T17:00:33.324Z,25.30
2022-10-31T17:03:38.193Z,21.52
2022-10-31T17:06:42.383Z,26.80
2022-10-31T17:09:46.631Z,17.73
2022-10-31T17:12:53.110Z,19.90
2022-10-31T17:15:59.412Z,19.98
2022-10-31T17:19:03.473Z,21.77
2022-10-31T17:22:07.897Z,26.80
2022-10-31T17:25:16.979Z,27.08
2022-10-31T17:28:22.669Z,24.10
2022-10-31T17:31:32.340Z,19.60
2022-10-31T17:34:36.800Z,23.63
2022-10-31T17:37:43.072Z,23.92
2022-10-31T17:43:56.859Z,27.08
2022-10-31T17:47:01.022Z,24.25
2022-10-31T17:50:05.429Z,26.73
2022-10-31T17:53:09.553Z,36.55
2022-10-31T17:56:14.033Z,31.02
2022-10-31T17:59:19.862Z,27.85
2022-10-31T18:02:24.441Z,25.42
2022-10-31T18:05:28.772Z,26.55
2022-10-31T18:08:35.418Z,20.08
2022-10-31T18:11:39.679Z,28.30
2022-10-31T18:14:48.431Z,27.38
2022-10-31T18:17:52.869Z,27.70
2022-10-31T18:20:59.629Z,24.70
2022-10-31T18:24:04.433Z,22.30
2022-10-31T18:27:11.838Z,26.95
2022-10-31T18:30:18.378Z,26.42
2022-10-31T18:33:22.685Z,23.33
2022-10-31T18:36:27.359Z,34.88
2022-10-31T18:39:31.648Z,29.48
2022-10-31T18:42:35.867Z,25.70
2022-10-31T18:45:48.608Z,27.10
2022-10-31T18:48:53.693Z,33.38
2022-10-31T18:51:58.035Z,36.40
2022-10-31T18:55:02.188Z,28.17
2022-10-31T18:58:06.357Z,19.33
2022-10-31T19:01:13.848Z,18.70
2022-10-31T19:04:18.099Z,26.60
2022-10-31T19:07:23.444Z,24.70
2022-10-31T19:10:29.809Z,24.90
2022-10-31T19:13:37.093Z,21.17
2022-10-31T19:16:44.596Z,20.50
2022-10-31T19:19:48.928Z,24.90
2022-10-31T19:22:53.396Z,25.77
2022-10-31T19:26:00.668Z,31.33
2022-10-31T19:29:08.215Z,20.85
2022-10-31T19:32:14.110Z,31.40
2022-10-31T19:35:18.736Z,27.98
2022-10-31T19:38:22.905Z,29.75
2022-10-31T19:41:28.525Z,30.45
2022-10-31T19:44:32.729Z,29.80
2022-10-31T19:47:38.670Z,31.65
2022-10-31T19:50:43.028Z,27.85
2022-10-31T19:53:48.017Z,20.23
2022-10-31T19:56:52.355Z,23.92
2022-10-31T19:59:56.689Z,43.92
2022-10-31T20:03:04.767Z,28.45
2022-10-31T20:06:14.784Z,29.08
2022-10-31T20:09:19.898Z,35.30
2022-10-31T20:12:24.195Z,28.02
2022-10-31T20:15:28.356Z,33.70
2022-10-31T20:18:36.845Z,33.60
2022-10-31T20:21:42.772Z,42.75
2022-10-31T20:24:46.855Z,38.40
2022-10-31T20:27:55.748Z,34.40
2022-10-31T20:31:00.166Z,33.50
2022-10-31T20:34:06.286Z,43.88
2022-10-31T20:37:14.736Z,39.38
2022-10-31T20:40:19.345Z,32.00
2022-10-31T20:43:23.645Z,43.87
2022-10-31T20:46:29.642Z,33.13
2022-10-31T20:49:42.491Z,27.00
2022-10-31T20:52:46.624Z,26.80
2022-10-31T20:55:50.905Z,31.57
2022-10-31T20:58:56.385Z,37.83
2022-10-31T21:02:02.615Z,32.45
2022-10-31T21:05:09.566Z,30.93
2022-10-31T21:08:13.915Z,37.20
2022-10-31T21:11:21.618Z,29.67
2022-10-31T21:14:25.955Z,35.20
2022-10-31T21:17:30.606Z,34.23
2022-10-31T21:20:36.816Z,36.97
2022-10-31T21:23:41.638Z,31.87
2022-10-31T21:26:50.784Z,32.17
2022-10-31T21:29:55.048Z,25.40
2022-10-31T21:32:59.296Z,30.40
2022-10-31T21:36:05.465Z,35.33
2022-10-31T21:39:10.579Z,34.90
2022-10-31T21:42:17.510Z,25.10
2022-10-31T21:45:25.437Z,35.30
2022-10-31T21:48:33.355Z,24.50
2022-10-31T21:51:43.342Z,25.53
2022-10-31T21:54:47.470Z,29.70
2022-10-31T21:57:51.745Z,29.93
2022-10-31T22:00:55.854Z,17.47
2022-10-31T22:04:00.696Z,16.13
2022-10-31T22:07:16.803Z,19.37
2022-10-31T22:10:20.926Z,19.03
2022-10-31T22:13:25.326Z,18.73
2022-10-31T22:16:31.238Z,20.30
2022-10-31T22:19:35.388Z,18.13
2022-10-31T22:22:41.146Z,12.33
2022-10-31T22:25:45.323Z,12.90
2022-10-31T22:28:53.645Z,13.30
2022-10-31T22:31:59.557Z,18.07
2022-10-31T22:35:06.249Z,14.13
2022-10-31T22:38:11.850Z,16.47
2022-10-31T22:41:17.738Z,14.93
2022-10-31T22:44:22.362Z,12.67
2022-10-31T22:47:26.648Z,14.77
2022-10-31T22:50:30.965Z,13.47
2022-10-31T22:53:38.731Z,14.23
2022-10-31T22:56:43.336Z,14.50
2022-10-31T22:59:47.559Z,16.97
2022-10-31T23:02:52.864Z,19.93
2022-10-31T23:05:58.259Z,16.10
2022-10-31T23:09:07.549Z,14.77
2022-10-31T23:12:31.171Z,10.60
2022-10-31T23:15:38.690Z,20.13
2022-10-31T23:18:50.165Z,16.00
2022-10-31T23:21:57.428Z,22.53
2022-10-31T23:25:04.333Z,17.53
2022-10-31T23:28:07.429Z,14.90
2022-10-31T23:31:11.604Z,14.73
2022-10-31T23:34:15.820Z,16.47
2022-10-31T23:37:21.675Z,17.70
2022-10-31T23:40:27.546Z,20.37
2022-10-31T23:43:31.582Z,21.67
2022-10-31T23:46:35.722Z,18.13
2022-10-31T23:49:40.114Z,19.07
2022-10-31T23:52:44.235Z,18.10
2022-10-31T23:55:49.780Z,16.20
2022-10-31T23:58:56.889Z,22.23
